This is the latest recevied weather packets stored in our database for station/object KC1DMA. If no packets are shown the sender has not sent any weather packets the latest 10 day(s).
| Time | Temp. | Humidity | Pressure | Rain* | Wind** | Luminosity | Snow |
|---|---|---|---|---|---|---|---|
| 1777766646 | 11.67° C | 58% | 1012.1 hPa | - | - | 5 W/m² | - |
| 1777766040 | 11.67° C | 58% | 1012 hPa | - | - | 5 W/m² | - |
| 1777765737 | 11.67° C | 58% | 1012.1 hPa | - | - | 5 W/m² | - |
| 1777760586 | 13.33° C | 56% | 1011.5 hPa | - | - | 117 W/m² | - |
| 1777759977 | 13.33° C | 56% | 1011.4 hPa | - | - | 126 W/m² | - |
| 1777759067 | 12.78° C | 58% | 1011.5 hPa | - | - | 139 W/m² | - |
| 1777758462 | 15° C | 54% | 1011.3 hPa | - | - | 345 W/m² | - |
| 1777757856 | 13.89° C | 59% | 1011.5 hPa | - | - | 192 W/m² | - |
| 1777753009 | 12.22° C | 66% | 1012 hPa | - | - | 328 W/m² | - |
| 1777752706 | 11.67° C | 67% | 1012 hPa | - | - | 271 W/m² | - |
| 1777752401 | 11.67° C | 69% | 1012 hPa | - | - | 205 W/m² | - |
| 1777752098 | 12.22° C | 67% | 1012.1 hPa | - | - | 244 W/m² | - |
| 1777751797 | 12.22° C | 67% | 1012.1 hPa | - | - | 255 W/m² | - |
| 1777751493 | 11.67° C | 68% | 1012.2 hPa | - | - | 242 W/m² | - |
| 1777751190 | 11.67° C | 68% | 1012.3 hPa | - | - | 205 W/m² | - |
| 1777750583 | 12.22° C | 70% | 1012.3 hPa | - | - | 598 W/m² | - |
| 1777749975 | 12.78° C | 71% | 1012.5 hPa | - | - | 711 W/m² | - |
| 1777749673 | 12.78° C | 73% | 1012.6 hPa | - | - | 696 W/m² | - |
| 1777749369 | 12.22° C | 75% | 1012.5 hPa | - | - | 780 W/m² | - |
| 1777749062 | 11.11° C | 76% | 1012.8 hPa | - | - | 357 W/m² | - |
| 1777748759 | 11.67° C | 77% | 1012.9 hPa | - | - | 293 W/m² | - |
| 1777748450 | 11.11° C | 77% | 1012.9 hPa | - | - | 630 W/m² | - |
| 1777748144 | 11.11° C | 76% | 1012.8 hPa | - | - | 545 W/m² | - |
| 1777747842 | 10.56° C | 77% | 1012.8 hPa | - | - | 556 W/m² | - |
| 1777747538 | 10.56° C | 80% | 1012.9 hPa | - | - | 726 W/m² | - |
* Rain since midnight (hover to see other rain measurements)
** Current wind speed in m/s (hover to see current wind gust speed)